createdAt,value
2023-12-11T00:01:32.711Z,4.43
2023-12-11T00:03:59.196Z,6.32
2023-12-11T00:06:25.644Z,4.60
2023-12-11T00:08:52.043Z,4.25
2023-12-11T00:11:18.535Z,4.00
2023-12-11T00:13:45.280Z,4.53
2023-12-11T00:16:11.730Z,4.30
2023-12-11T00:18:38.296Z,5.88
2023-12-11T00:21:04.927Z,6.32
2023-12-11T00:23:31.366Z,6.20
2023-12-11T00:25:57.770Z,4.80
2023-12-11T00:28:24.177Z,5.63
2023-12-11T00:30:52.181Z,6.10
2023-12-11T00:33:18.995Z,4.75
2023-12-11T00:35:47.260Z,4.43
2023-12-11T00:38:13.864Z,4.07
2023-12-11T00:40:40.245Z,4.82
2023-12-11T00:43:06.709Z,3.03
2023-12-11T00:45:33.209Z,4.95
2023-12-11T00:47:59.755Z,3.88
2023-12-11T00:50:26.198Z,4.90
2023-12-11T00:52:52.630Z,4.07
2023-12-11T00:55:21.720Z,3.33
2023-12-11T00:57:48.177Z,2.97
2023-12-11T01:00:14.755Z,3.53
2023-12-11T01:02:43.269Z,3.40
2023-12-11T01:05:10.545Z,4.25
2023-12-11T01:07:36.994Z,2.47
2023-12-11T01:10:04.162Z,2.95
2023-12-11T01:12:33.791Z,3.72
2023-12-11T01:15:00.370Z,4.20
2023-12-11T01:17:38.368Z,3.80
2023-12-11T01:20:07.341Z,3.65
2023-12-11T01:22:33.827Z,4.75
2023-12-11T01:25:03.534Z,3.30
2023-12-11T01:27:30.504Z,3.30
2023-12-11T01:29:57.252Z,2.95
2023-12-11T01:32:23.721Z,2.45
2023-12-11T01:34:50.182Z,2.92
2023-12-11T01:37:17.718Z,3.60
2023-12-11T01:39:47.316Z,2.88
2023-12-11T01:42:14.330Z,2.95
2023-12-11T01:44:40.784Z,4.00
2023-12-11T01:47:07.404Z,3.20
2023-12-11T01:49:34.179Z,3.03
2023-12-11T01:52:00.759Z,3.08
2023-12-11T01:54:27.646Z,3.53
2023-12-11T01:56:56.891Z,4.10
2023-12-11T01:59:23.475Z,3.85
2023-12-11T02:01:50.793Z,4.35
2023-12-11T02:04:17.526Z,3.83
2023-12-11T02:06:44.259Z,3.35
2023-12-11T02:09:12.090Z,3.28
2023-12-11T02:11:38.563Z,4.03
2023-12-11T02:14:08.104Z,3.10
2023-12-11T02:16:34.525Z,4.25
2023-12-11T02:19:01.049Z,4.05
2023-12-11T02:21:27.940Z,3.42
2023-12-11T02:24:03.070Z,3.47
2023-12-11T02:26:30.089Z,2.92
2023-12-11T02:28:56.594Z,2.85
2023-12-11T02:31:23.199Z,4.80
2023-12-11T02:33:49.755Z,3.58
2023-12-11T02:36:16.370Z,4.70
2023-12-11T02:38:42.939Z,4.35
2023-12-11T02:41:09.388Z,4.85
2023-12-11T02:43:36.287Z,6.63
2023-12-11T02:46:03.982Z,4.10
2023-12-11T02:48:30.912Z,4.93
2023-12-11T02:50:57.538Z,6.43
2023-12-11T02:53:23.999Z,4.68
2023-12-11T02:55:50.412Z,5.72
2023-12-11T02:58:16.847Z,4.57
2023-12-11T03:00:43.557Z,5.32
2023-12-11T03:03:10.326Z,4.70
2023-12-11T03:05:39.687Z,5.13
2023-12-11T03:08:06.530Z,5.45
2023-12-11T03:10:33.430Z,6.80
2023-12-11T03:13:00.090Z,6.03
2023-12-11T03:15:26.615Z,5.95
2023-12-11T03:17:53.065Z,5.07
2023-12-11T03:20:19.517Z,5.82
2023-12-11T03:22:48.589Z,5.72
2023-12-11T03:25:15.393Z,6.55
2023-12-11T03:27:41.878Z,5.32
2023-12-11T03:30:12.799Z,6.30
2023-12-11T03:32:39.339Z,6.50
2023-12-11T03:35:06.034Z,6.00
2023-12-11T03:37:32.704Z,5.60
2023-12-11T03:40:03.051Z,5.10
2023-12-11T03:42:29.566Z,4.80
2023-12-11T03:44:56.232Z,4.35
2023-12-11T03:47:22.886Z,4.15
2023-12-11T03:49:49.461Z,5.90
2023-12-11T03:52:15.925Z,5.65
2023-12-11T03:54:42.465Z,6.53
2023-12-11T03:57:12.194Z,5.43
2023-12-11T03:59:38.639Z,5.15
2023-12-11T04:02:06.518Z,5.38
2023-12-11T04:04:33.060Z,5.05
2023-12-11T04:06:59.538Z,4.40
2023-12-11T04:09:26.087Z,5.22
2023-12-11T04:11:52.467Z,4.75
2023-12-11T04:14:21.043Z,4.82
2023-12-11T04:16:47.450Z,5.60
2023-12-11T04:19:14.257Z,4.93
2023-12-11T04:21:40.859Z,5.15
2023-12-11T04:24:07.361Z,5.07
2023-12-11T04:26:33.899Z,3.83
2023-12-11T04:29:00.358Z,3.10
2023-12-11T04:31:26.830Z,3.30
2023-12-11T04:33:53.645Z,4.13
2023-12-11T04:36:20.242Z,4.10
2023-12-11T04:38:46.770Z,3.25
2023-12-11T04:41:13.253Z,3.55
2023-12-11T04:43:39.704Z,3.40
2023-12-11T04:46:06.383Z,2.92
2023-12-11T04:48:33.042Z,3.05
2023-12-11T04:50:59.583Z,3.33
2023-12-11T04:53:26.014Z,4.32
2023-12-11T04:55:55.620Z,3.28
2023-12-11T04:58:22.086Z,4.72
2023-12-11T05:00:48.605Z,4.45
2023-12-11T05:03:15.151Z,4.10
2023-12-11T05:05:41.702Z,3.83
2023-12-11T05:08:08.100Z,4.10
2023-12-11T05:10:35.266Z,4.38
2023-12-11T05:13:03.780Z,4.72
2023-12-11T05:15:30.229Z,4.63
2023-12-11T05:17:56.710Z,4.20
2023-12-11T05:20:23.204Z,4.00
2023-12-11T05:22:49.637Z,3.72
2023-12-11T05:25:16.288Z,3.75
2023-12-11T05:27:42.885Z,2.72
2023-12-11T05:30:09.732Z,3.33
2023-12-11T05:32:36.322Z,3.95
2023-12-11T05:35:02.906Z,4.10
2023-12-11T05:37:29.719Z,4.35
2023-12-11T05:40:01.885Z,4.07
2023-12-11T05:42:42.757Z,4.05
2023-12-11T05:45:10.457Z,4.55
2023-12-11T05:47:37.407Z,4.10
2023-12-11T05:50:04.146Z,3.30
2023-12-11T05:52:30.651Z,4.60
2023-12-11T05:54:57.107Z,4.20
2023-12-11T05:57:26.013Z,3.45
2023-12-11T05:59:52.445Z,4.07
2023-12-11T06:02:18.920Z,3.78
2023-12-11T06:04:45.357Z,4.85
2023-12-11T06:07:11.949Z,3.67
2023-12-11T06:09:38.586Z,4.85
2023-12-11T06:12:05.412Z,4.32
2023-12-11T06:14:32.652Z,3.67
2023-12-11T06:16:59.100Z,3.15
2023-12-11T06:19:25.546Z,2.97
2023-12-11T06:21:52.069Z,3.85
2023-12-11T06:24:18.550Z,3.95
2023-12-11T06:26:45.075Z,4.00
2023-12-11T06:29:11.481Z,5.03
2023-12-11T06:31:37.930Z,4.30
2023-12-11T06:34:04.627Z,5.25
2023-12-11T06:36:31.246Z,4.38
2023-12-11T06:39:00.783Z,3.25
2023-12-11T06:41:27.210Z,4.30
2023-12-11T06:43:54.755Z,3.45
2023-12-11T06:46:21.769Z,3.50
2023-12-11T06:48:48.512Z,4.25
2023-12-11T06:51:15.507Z,3.85
2023-12-11T06:53:41.948Z,3.80
2023-12-11T06:56:17.824Z,3.40
2023-12-11T06:58:44.282Z,3.40
2023-12-11T07:01:11.220Z,3.35
2023-12-11T07:03:37.875Z,3.28
2023-12-11T07:06:04.673Z,4.10
2023-12-11T07:08:31.996Z,3.20
2023-12-11T07:10:58.437Z,3.03
2023-12-11T07:13:24.931Z,2.75
2023-12-11T07:15:51.371Z,2.60
2023-12-11T07:18:18.929Z,2.42
2023-12-11T07:20:45.613Z,2.60
2023-12-11T07:23:12.070Z,3.00
2023-12-11T07:25:38.682Z,2.08
2023-12-11T07:28:05.171Z,2.40
2023-12-11T07:30:31.984Z,2.97
2023-12-11T07:32:59.127Z,1.90
2023-12-11T07:35:26.143Z,3.25
2023-12-11T07:37:52.547Z,2.70
2023-12-11T07:40:19.050Z,2.63
2023-12-11T07:42:45.613Z,3.33
2023-12-11T07:45:12.200Z,3.00
2023-12-11T07:47:41.215Z,3.30
2023-12-11T07:50:07.837Z,3.25
2023-12-11T07:52:34.569Z,3.05
2023-12-11T07:55:01.130Z,2.60
2023-12-11T07:57:29.428Z,3.45
2023-12-11T07:59:56.226Z,3.33
2023-12-11T08:02:22.645Z,3.58
2023-12-11T08:04:51.534Z,2.38
2023-12-11T08:07:18.498Z,2.55
2023-12-11T08:09:45.391Z,4.18
2023-12-11T08:12:11.920Z,3.80
2023-12-11T08:14:39.663Z,2.85
2023-12-11T08:17:07.426Z,3.53
2023-12-11T08:19:37.005Z,3.28
2023-12-11T08:22:04.432Z,2.35
2023-12-11T08:24:31.049Z,3.20
2023-12-11T08:26:57.548Z,3.85
2023-12-11T08:29:24.179Z,2.33
2023-12-11T08:31:50.977Z,2.10
2023-12-11T08:34:19.754Z,3.65
2023-12-11T08:36:46.277Z,2.63
2023-12-11T08:39:15.685Z,3.33
2023-12-11T08:41:42.210Z,3.78
2023-12-11T08:44:08.641Z,5.63
2023-12-11T08:46:35.488Z,4.80
2023-12-11T08:49:02.107Z,6.43
2023-12-11T08:51:28.929Z,4.25
2023-12-11T08:53:55.968Z,5.07
2023-12-11T08:56:27.461Z,4.22
2023-12-11T08:58:55.307Z,4.32
2023-12-11T09:01:21.845Z,3.63
2023-12-11T09:03:49.528Z,3.17
2023-12-11T09:06:16.222Z,3.67
2023-12-11T09:08:42.725Z,4.47
2023-12-11T09:11:09.390Z,2.97
2023-12-11T09:13:39.302Z,4.22
2023-12-11T09:16:05.896Z,4.28
2023-12-11T09:18:32.490Z,4.45
2023-12-11T09:20:59.061Z,3.97
2023-12-11T09:23:25.555Z,3.00
2023-12-11T09:25:52.049Z,2.83
2023-12-11T09:28:18.517Z,3.65
2023-12-11T09:30:47.053Z,2.97
2023-12-11T09:33:14.116Z,3.47
2023-12-11T09:35:41.034Z,3.28
2023-12-11T09:38:07.540Z,3.95
2023-12-11T09:40:35.419Z,3.95
2023-12-11T09:43:02.863Z,4.45
2023-12-11T09:45:29.501Z,3.05
2023-12-11T09:48:07.866Z,2.80
2023-12-11T09:50:38.950Z,3.35
2023-12-11T09:53:05.845Z,3.78
2023-12-11T09:55:32.304Z,2.75
2023-12-11T09:58:02.692Z,2.45
2023-12-11T10:00:29.381Z,3.28
2023-12-11T10:02:56.065Z,3.08
2023-12-11T10:05:26.420Z,2.90
2023-12-11T10:07:53.095Z,2.63
2023-12-11T10:10:19.646Z,2.92
2023-12-11T10:12:46.797Z,3.22
2023-12-11T10:15:19.001Z,4.30
2023-12-11T10:17:45.576Z,5.47
2023-12-11T10:20:16.400Z,3.30
2023-12-11T10:22:42.966Z,3.00
2023-12-11T10:25:11.441Z,2.45
2023-12-11T10:27:38.008Z,3.35
2023-12-11T10:30:09.670Z,2.65
2023-12-11T10:32:36.271Z,3.42
2023-12-11T10:35:03.027Z,4.32
2023-12-11T10:37:33.129Z,3.70
2023-12-11T10:40:00.310Z,3.20
2023-12-11T10:42:27.920Z,2.60
2023-12-11T10:44:55.235Z,2.90
2023-12-11T10:47:22.040Z,3.10
2023-12-11T10:49:50.034Z,3.80
2023-12-11T10:52:17.285Z,2.25
2023-12-11T10:54:44.000Z,2.75
2023-12-11T10:57:13.419Z,3.17
2023-12-11T10:59:40.049Z,3.35
2023-12-11T11:02:07.732Z,2.97
2023-12-11T11:04:37.025Z,2.60
2023-12-11T11:07:17.158Z,3.03
2023-12-11T11:09:58.871Z,2.42
2023-12-11T11:12:31.590Z,2.72
2023-12-11T11:14:58.057Z,3.25
2023-12-11T11:17:24.483Z,4.25
2023-12-11T11:20:10.817Z,3.70
2023-12-11T11:22:41.044Z,4.53
2023-12-11T11:27:43.783Z,4.07
2023-12-11T11:30:12.359Z,2.97
2023-12-11T11:32:58.298Z,2.75
2023-12-11T11:35:54.131Z,3.90
2023-12-11T11:38:21.210Z,4.43
2023-12-11T11:40:49.850Z,4.20
2023-12-11T11:43:16.622Z,3.80
2023-12-11T11:45:44.443Z,3.70
2023-12-11T11:48:11.167Z,3.95
2023-12-11T11:50:49.940Z,3.95
2023-12-11T11:53:18.315Z,4.72
2023-12-11T11:55:44.866Z,3.95
2023-12-11T11:58:13.353Z,4.35
2023-12-11T12:00:39.993Z,5.05
2023-12-11T12:03:08.049Z,4.93
2023-12-11T12:05:35.304Z,4.47
2023-12-11T12:08:01.923Z,3.03
2023-12-11T12:10:28.742Z,3.55
2023-12-11T12:12:58.909Z,3.35
2023-12-11T12:15:26.562Z,3.45
2023-12-11T12:17:53.535Z,3.42
2023-12-11T12:20:20.462Z,3.92
2023-12-11T12:23:02.699Z,3.70
2023-12-11T12:25:31.808Z,3.92
2023-12-11T12:28:08.358Z,4.00
2023-12-11T12:30:35.159Z,3.63
2023-12-11T12:33:02.145Z,4.65
2023-12-11T12:35:28.924Z,3.25
2023-12-11T12:37:57.081Z,3.08
2023-12-11T12:40:23.950Z,3.63
2023-12-11T12:42:50.655Z,3.55
2023-12-11T12:45:35.557Z,4.20
2023-12-11T12:48:03.791Z,4.25
2023-12-11T12:50:30.478Z,3.67
2023-12-11T12:53:11.734Z,4.15
2023-12-11T12:55:40.547Z,5.10
2023-12-11T12:58:08.730Z,4.18
2023-12-11T13:00:35.768Z,4.57
2023-12-11T13:03:04.124Z,3.35
2023-12-11T13:05:40.288Z,4.05
2023-12-11T13:08:06.774Z,4.32
2023-12-11T13:10:33.255Z,4.40
2023-12-11T13:12:59.651Z,3.92
2023-12-11T13:15:26.093Z,3.00
2023-12-11T13:17:53.799Z,4.18
2023-12-11T13:20:21.393Z,3.05
2023-12-11T13:22:51.649Z,3.83
2023-12-11T13:25:18.099Z,3.65
2023-12-11T13:27:48.032Z,3.67
2023-12-11T13:30:20.598Z,3.15
2023-12-11T13:32:47.260Z,3.55
2023-12-11T13:35:13.704Z,5.13
2023-12-11T13:37:40.252Z,4.40
2023-12-11T13:40:07.917Z,4.85
2023-12-11T13:42:34.558Z,4.60
2023-12-11T13:45:01.092Z,5.30
2023-12-11T13:47:27.763Z,5.50
2023-12-11T13:49:54.494Z,5.97
2023-12-11T13:52:21.084Z,5.90
2023-12-11T13:54:47.603Z,6.38
2023-12-11T13:57:17.106Z,7.88
2023-12-11T13:59:43.527Z,5.60
2023-12-11T14:02:10.083Z,4.95
2023-12-11T14:04:38.035Z,4.05
2023-12-11T14:07:04.877Z,5.03
2023-12-11T14:09:34.292Z,5.40
2023-12-11T14:12:01.892Z,5.90
2023-12-11T14:14:28.270Z,5.30
2023-12-11T14:16:54.700Z,5.00
2023-12-11T14:19:21.176Z,6.38
2023-12-11T14:21:50.553Z,6.13
2023-12-11T14:24:17.049Z,6.55
2023-12-11T14:26:47.914Z,5.05
2023-12-11T14:29:19.172Z,6.93
2023-12-11T14:31:47.141Z,5.38
2023-12-11T14:34:14.382Z,5.90
2023-12-11T14:36:41.046Z,6.82
2023-12-11T14:39:08.396Z,6.82
2023-12-11T14:41:34.852Z,6.00
2023-12-11T14:44:01.242Z,4.72
2023-12-11T14:46:27.737Z,6.40
2023-12-11T14:48:54.993Z,5.50
2023-12-11T14:51:21.642Z,6.65
2023-12-11T14:53:48.129Z,5.38
2023-12-11T14:56:14.631Z,5.50
2023-12-11T14:58:41.388Z,6.18
2023-12-11T15:01:08.059Z,5.28
2023-12-11T15:03:35.436Z,5.25
2023-12-11T15:06:06.961Z,3.88
2023-12-11T15:08:33.477Z,4.60
2023-12-11T15:10:59.898Z,3.60
2023-12-11T15:13:26.554Z,4.60
2023-12-11T15:15:53.327Z,4.25
2023-12-11T15:18:19.887Z,3.83
2023-12-11T15:20:46.372Z,5.20
2023-12-11T15:23:17.209Z,4.95
2023-12-11T15:25:43.602Z,5.18
2023-12-11T15:28:10.057Z,5.50
2023-12-11T15:30:36.505Z,4.03
2023-12-11T15:33:03.359Z,4.07
2023-12-11T15:35:29.987Z,4.65
2023-12-11T15:37:56.379Z,4.30
2023-12-11T15:40:25.686Z,3.10
2023-12-11T15:42:52.241Z,3.58
2023-12-11T15:45:18.678Z,3.88
2023-12-11T15:48:00.652Z,3.67
2023-12-11T15:50:29.807Z,3.22
2023-12-11T15:52:56.366Z,3.33
2023-12-11T15:55:22.831Z,3.67
2023-12-11T15:57:49.306Z,4.07
2023-12-11T16:00:16.042Z,4.80
2023-12-11T16:02:42.511Z,2.60
2023-12-11T16:05:09.740Z,3.00
2023-12-11T16:07:36.497Z,3.90
2023-12-11T16:10:03.169Z,4.47
2023-12-11T16:12:30.214Z,4.22
2023-12-11T16:14:56.722Z,3.92
2023-12-11T16:17:23.169Z,4.38
2023-12-11T16:19:51.031Z,5.05
2023-12-11T16:22:17.533Z,4.53
2023-12-11T16:24:43.956Z,5.07
2023-12-11T16:27:10.386Z,4.20
2023-12-11T16:29:36.823Z,4.50
2023-12-11T16:32:03.392Z,5.15
2023-12-11T16:34:32.699Z,4.28
2023-12-11T16:36:59.280Z,4.30
2023-12-11T16:39:26.281Z,3.03
2023-12-11T16:41:52.685Z,4.30
2023-12-11T16:44:19.083Z,3.70
2023-12-11T16:46:45.619Z,3.63
2023-12-11T16:49:15.195Z,4.60
2023-12-11T16:51:41.685Z,3.10
2023-12-11T16:54:08.513Z,4.90
2023-12-11T16:56:35.002Z,7.50
2023-12-11T16:59:01.464Z,4.30
2023-12-11T17:01:27.933Z,4.95
2023-12-11T17:03:54.467Z,3.80
2023-12-11T17:06:26.988Z,4.70
2023-12-11T17:08:53.393Z,6.07
2023-12-11T17:11:20.318Z,4.68
2023-12-11T17:13:46.735Z,5.53
2023-12-11T17:16:13.202Z,5.22
2023-12-11T17:18:42.190Z,4.32
2023-12-11T17:21:10.595Z,4.13
2023-12-11T17:23:39.639Z,5.40
2023-12-11T17:26:06.176Z,5.22
2023-12-11T17:28:32.768Z,4.68
2023-12-11T17:30:59.208Z,4.78
2023-12-11T17:33:25.845Z,5.07
2023-12-11T17:35:52.240Z,4.28
2023-12-11T17:38:18.655Z,6.53
2023-12-11T17:40:45.054Z,5.63
2023-12-11T17:43:11.509Z,4.45
2023-12-11T17:45:38.081Z,4.88
2023-12-11T17:48:04.915Z,4.38
2023-12-11T17:50:31.641Z,4.60
2023-12-11T17:52:58.051Z,4.00
2023-12-11T17:55:24.780Z,3.28
2023-12-11T17:57:51.309Z,3.78
2023-12-11T18:00:17.844Z,3.38
2023-12-11T18:02:44.265Z,3.42
2023-12-11T18:05:11.010Z,4.15
2023-12-11T18:07:37.624Z,3.40
2023-12-11T18:10:04.830Z,3.58
2023-12-11T18:12:31.279Z,2.88
2023-12-11T18:14:57.693Z,4.03
2023-12-11T18:17:24.155Z,3.95
2023-12-11T18:19:50.788Z,4.45
2023-12-11T18:22:17.439Z,5.30
2023-12-11T18:24:43.890Z,4.22
2023-12-11T18:27:10.327Z,3.78
2023-12-11T18:29:37.859Z,3.55
2023-12-11T18:32:04.440Z,3.22
2023-12-11T18:34:39.873Z,5.63
2023-12-11T18:37:14.595Z,4.25
2023-12-11T18:39:42.123Z,4.43
2023-12-11T18:42:08.729Z,4.45
2023-12-11T18:44:35.297Z,3.13
2023-12-11T18:47:02.235Z,3.35
2023-12-11T18:49:29.624Z,3.55
2023-12-11T18:51:56.241Z,3.85
2023-12-11T18:54:23.035Z,3.35
2023-12-11T18:56:49.589Z,2.75
2023-12-11T18:59:16.086Z,3.13
2023-12-11T19:01:43.344Z,3.15
2023-12-11T19:04:10.780Z,3.05
2023-12-11T19:06:37.320Z,2.85
2023-12-11T19:09:04.613Z,2.13
2023-12-11T19:11:31.065Z,2.25
2023-12-11T19:14:00.666Z,2.65
2023-12-11T19:16:27.104Z,2.10
2023-12-11T19:18:53.645Z,3.17
2023-12-11T19:21:22.196Z,2.17
2023-12-11T19:23:50.848Z,2.55
2023-12-11T19:26:17.382Z,1.70
2023-12-11T19:28:43.799Z,2.10
2023-12-11T19:31:10.253Z,1.90
2023-12-11T19:33:36.837Z,2.70
2023-12-11T19:36:06.342Z,3.00
2023-12-11T19:38:32.798Z,2.60
2023-12-11T19:40:59.175Z,2.97
2023-12-11T19:43:25.615Z,3.20
2023-12-11T19:45:53.122Z,2.72
2023-12-11T19:48:21.271Z,3.05
2023-12-11T19:50:47.812Z,2.85
2023-12-11T19:53:14.266Z,2.20
2023-12-11T19:55:40.792Z,3.05
2023-12-11T19:58:08.778Z,3.55
2023-12-11T20:00:35.686Z,3.45
2023-12-11T20:03:02.198Z,2.42
2023-12-11T20:05:28.812Z,2.83
2023-12-11T20:07:55.217Z,1.65
2023-12-11T20:10:21.689Z,1.83
2023-12-11T20:12:48.117Z,1.52
2023-12-11T20:15:14.634Z,2.22
2023-12-11T20:17:41.804Z,2.00
2023-12-11T20:20:09.047Z,1.77
2023-12-11T20:22:35.792Z,1.80
2023-12-11T20:25:02.877Z,2.30
2023-12-11T20:27:29.557Z,3.00
2023-12-11T20:29:56.085Z,2.80
2023-12-11T20:32:22.513Z,3.60
2023-12-11T20:34:49.018Z,3.03
2023-12-11T20:37:15.592Z,3.30
2023-12-11T20:39:42.027Z,2.78
2023-12-11T20:42:08.454Z,2.80
2023-12-11T20:44:34.870Z,3.22
2023-12-11T20:47:01.247Z,3.22
2023-12-11T20:49:27.686Z,2.67
2023-12-11T20:51:54.204Z,3.05
2023-12-11T20:54:20.670Z,4.45
2023-12-11T20:56:47.106Z,3.00
2023-12-11T20:59:13.839Z,3.13
2023-12-11T21:01:40.390Z,3.40
2023-12-11T21:04:08.045Z,3.22
2023-12-11T21:06:35.165Z,2.40
2023-12-11T21:09:05.679Z,3.22
2023-12-11T21:11:32.811Z,2.88
2023-12-11T21:13:59.695Z,3.05
2023-12-11T21:16:26.223Z,2.85
2023-12-11T21:18:52.979Z,2.58
2023-12-11T21:21:20.997Z,2.80
2023-12-11T21:23:48.508Z,3.00
2023-12-11T21:26:15.919Z,2.53
2023-12-11T21:28:42.445Z,2.60
2023-12-11T21:31:16.460Z,2.85
2023-12-11T21:33:42.943Z,3.03
2023-12-11T21:36:09.451Z,3.55
2023-12-11T21:38:35.865Z,3.00
2023-12-11T21:41:04.707Z,3.08
2023-12-11T21:43:31.165Z,3.50
2023-12-11T21:45:59.232Z,2.65
2023-12-11T21:48:25.776Z,3.35
2023-12-11T21:50:52.182Z,2.95
2023-12-11T21:53:18.583Z,2.85
2023-12-11T21:55:45.192Z,2.88
2023-12-11T21:58:11.687Z,2.78
2023-12-11T22:00:38.398Z,2.95
2023-12-11T22:03:04.880Z,2.53
2023-12-11T22:05:31.384Z,2.30
2023-12-11T22:07:57.783Z,3.08
2023-12-11T22:10:24.280Z,2.45
2023-12-11T22:12:50.720Z,2.50
2023-12-11T22:15:17.162Z,3.00
2023-12-11T22:17:43.689Z,2.92
2023-12-11T22:20:14.818Z,2.58
2023-12-11T22:22:41.222Z,3.55
2023-12-11T22:25:08.862Z,2.45
2023-12-11T22:27:35.339Z,3.47
2023-12-11T22:30:01.888Z,2.70
2023-12-11T22:32:28.272Z,3.33
2023-12-11T22:34:55.359Z,3.75
2023-12-11T22:37:21.984Z,2.40
2023-12-11T22:39:48.643Z,2.60
2023-12-11T22:42:15.081Z,3.53
2023-12-11T22:44:42.742Z,3.45
2023-12-11T22:47:09.709Z,2.90
2023-12-11T22:49:36.182Z,2.95
2023-12-11T22:52:03.080Z,2.38
2023-12-11T22:54:29.928Z,2.60
2023-12-11T22:56:56.324Z,3.80
2023-12-11T22:59:22.840Z,3.45
2023-12-11T23:01:50.915Z,3.03
2023-12-11T23:04:17.506Z,3.58
2023-12-11T23:06:43.953Z,4.13
2023-12-11T23:09:10.420Z,3.63
2023-12-11T23:11:36.832Z,3.13
2023-12-11T23:14:03.236Z,3.25
2023-12-11T23:16:29.971Z,3.00
2023-12-11T23:18:59.923Z,3.72
2023-12-11T23:21:27.470Z,3.53
2023-12-11T23:23:53.872Z,2.75
2023-12-11T23:26:20.738Z,2.67
2023-12-11T23:28:48.281Z,2.75
2023-12-11T23:31:14.737Z,2.30
2023-12-11T23:33:41.476Z,3.25
2023-12-11T23:36:10.142Z,2.75
2023-12-11T23:38:36.735Z,2.70
2023-12-11T23:41:03.803Z,3.05
2023-12-11T23:43:30.585Z,3.92
2023-12-11T23:45:57.131Z,3.90
2023-12-11T23:48:23.720Z,3.35
2023-12-11T23:50:50.203Z,3.22
2023-12-11T23:53:16.601Z,4.60
2023-12-11T23:55:44.032Z,4.00
2023-12-11T23:58:11.136Z,3.55
